Time;durP1;ratioP1;P1;durP2;ratioP2;P2;SDS_P1;SDS_P2;PMS_P1;PMS_P2;Temp;Humidity;BMP_temperature;BMP_pressure;BME280_temperature;BME280_humidity;BME280_pressure;Samples;Min_cycle;Max_cycle;Signal;HPM_P1;HPM_P2
2021/12/03 00:01:32;;;;;;;8.80;2.93;;;;;;;-0.27;67.31;99476.30;1782637;79;21484;-73
2021/12/03 00:03:59;;;;;;;4.13;1.83;;;;;;;-0.26;67.42;99480.58;1782341;80;21119;-73
2021/12/03 00:06:26;;;;;;;9.53;2.97;;;;;;;-0.25;67.52;99498.16;1782452;79;21021;-73
2021/12/03 00:08:54;;;;;;;7.63;3.30;;;;;;;-0.24;67.59;99501.17;1782268;79;21495;-73
2021/12/03 00:11:21;;;;;;;8.87;2.83;;;;;;;-0.23;67.68;99509.31;1782501;80;21551;-75
2021/12/03 00:13:48;;;;;;;5.57;2.23;;;;;;;-0.22;67.79;99518.77;1782237;79;20978;-73
2021/12/03 00:16:15;;;;;;;7.60;2.50;;;;;;;-0.20;67.91;99525.17;1782565;79;21115;-73
2021/12/03 00:18:42;;;;;;;7.60;2.70;;;;;;;-0.19;67.80;99526.88;1782108;79;21073;-73
2021/12/03 00:21:11;;;;;;;6.43;2.70;;;;;;;-0.20;67.83;99531.61;1782558;79;21005;-72
2021/12/03 00:23:45;;;;;;;8.57;2.90;;;;;;;-0.21;67.88;99532.49;1782590;80;20998;-73
2021/12/03 00:26:12;;;;;;;8.50;2.47;;;;;;;-0.24;67.88;99530.79;1782325;79;21534;-73
2021/12/03 00:28:39;;;;;;;6.60;2.20;;;;;;;-0.26;67.81;99536.37;1782306;80;21571;-72
2021/12/03 00:31:08;;;;;;;8.73;2.27;;;;;;;-0.32;67.88;99537.71;1782338;79;20982;-72
2021/12/03 00:33:36;;;;;;;5.50;2.03;;;;;;;-0.33;68.03;99545.03;1782487;79;21009;-73
2021/12/03 00:36:07;;;;;;;8.70;2.63;;;;;;;-0.37;68.03;99545.89;1782186;80;21029;-73
2021/12/03 00:38:42;;;;;;;6.20;2.20;;;;;;;-0.41;68.05;99545.51;1782653;80;21044;-72
2021/12/03 00:41:14;;;;;;;8.03;2.40;;;;;;;-0.43;68.18;99555.80;1782114;79;21127;-73
2021/12/03 00:43:47;;;;;;;7.13;2.83;;;;;;;-0.49;68.24;99560.55;1782322;79;21072;-73
2021/12/03 00:46:17;;;;;;;6.33;2.30;;;;;;;-0.51;68.29;99562.27;1782222;79;21435;-72
2021/12/03 00:48:51;;;;;;;6.72;2.27;;;;;;;-0.55;68.46;99567.03;1782540;80;21450;-73
2021/12/03 00:51:22;;;;;;;7.77;2.30;;;;;;;-0.57;68.46;99566.17;1782169;79;21068;-72
2021/12/03 00:53:50;;;;;;;6.90;2.05;;;;;;;-0.61;68.57;99570.05;1782502;80;21947;-73
2021/12/03 00:56:17;;;;;;;7.43;2.27;;;;;;;-0.64;68.51;99576.50;1782468;79;22022;-72
2021/12/03 00:58:45;;;;;;;5.80;2.43;;;;;;;-0.74;68.61;99573.98;1782149;79;20993;-72
2021/12/03 01:01:14;;;;;;;7.17;2.77;;;;;;;-0.74;68.74;99580.41;1782459;80;20994;-73
2021/12/03 01:03:43;;;;;;;8.57;2.43;;;;;;;-0.82;68.80;99581.31;1782306;80;21510;-73
2021/12/03 01:06:11;;;;;;;5.97;2.33;;;;;;;-0.86;68.87;99586.88;1782504;79;21094;-72
2021/12/03 01:08:38;;;;;;;10.53;2.30;;;;;;;-0.92;69.07;99585.62;1782072;80;20994;-72
2021/12/03 01:11:08;;;;;;;6.40;2.10;;;;;;;-0.92;69.09;99590.77;1782605;79;21064;-72
2021/12/03 01:13:38;;;;;;;7.60;2.67;;;;;;;-0.96;69.18;99596.80;1782186;79;21037;-72
2021/12/03 01:16:07;;;;;;;8.40;2.40;;;;;;;-1.00;69.20;99598.53;1782535;79;21261;-72
2021/12/03 01:18:35;;;;;;;8.78;2.58;;;;;;;-1.06;69.42;99594.67;1782391;79;21957;-74
2021/12/03 01:21:03;;;;;;;5.50;2.37;;;;;;;-1.06;69.38;99597.67;1782453;79;20997;-72
2021/12/03 01:23:31;;;;;;;4.20;1.70;;;;;;;-1.14;69.58;99603.72;1782257;79;20993;-73
2021/12/03 01:25:58;;;;;;;8.77;2.27;;;;;;;-1.15;69.55;99599.41;1782427;79;20978;-72
2021/12/03 01:28:27;;;;;;;8.37;2.20;;;;;;;-1.19;69.82;99610.58;1782093;79;21503;-72
2021/12/03 01:30:55;;;;;;;7.03;2.30;;;;;;;-1.18;69.76;99626.86;1782379;79;22263;-72
2021/12/03 01:33:22;;;;;;;8.33;2.33;;;;;;;-1.23;69.91;99630.70;1782100;79;21452;-72
2021/12/03 01:35:50;;;;;;;5.70;2.30;;;;;;;-1.22;70.08;99623.84;1782496;79;21013;-72
2021/12/03 01:38:18;;;;;;;4.30;1.83;;;;;;;-1.26;70.17;99623.00;1782213;79;21061;-72
2021/12/03 01:40:45;;;;;;;5.43;2.60;;;;;;;-1.25;70.25;99631.13;1782385;79;21566;-72
2021/12/03 01:43:20;;;;;;;7.47;2.53;;;;;;;-1.27;70.35;99629.02;1782209;80;21108;-72
2021/12/03 01:45:42;;;;;;;6.77;2.60;;;;;;;-1.27;70.26;99631.59;1774693;80;20987;-72
2021/12/03 01:48:11;;;;;;;7.40;2.60;;;;;;;-1.30;70.37;99628.14;1765911;81;21619;-73
2021/12/03 01:50:44;;;;;;;5.50;2.60;;;;;;;-1.32;70.40;99623.02;1766129;81;20982;-73
2021/12/03 01:53:15;;;;;;;6.37;2.47;;;;;;;-1.36;70.50;99626.44;1765989;81;21796;-72
2021/12/03 01:55:43;;;;;;;;;;;;;;;-1.36;70.58;99634.15;1768655;81;21941;-72
2021/12/03 01:58:12;;;;;;;5.10;2.17;;;;;;;-1.38;70.75;99627.74;1766133;80;20132;-72
2021/12/03 02:00:47;;;;;;;6.47;2.20;;;;;;;-1.37;70.72;99640.16;1769596;79;21464;-72
2021/12/03 02:03:15;;;;;;;7.63;2.20;;;;;;;-1.42;70.85;99639.30;1770958;79;20919;-72
2021/12/03 02:05:43;;;;;;;6.93;2.50;;;;;;;-1.40;70.89;99650.02;1766175;81;21014;-72
2021/12/03 02:08:11;;;;;;;7.13;1.93;;;;;;;-1.43;70.97;99659.45;1766428;81;21890;-72
2021/12/03 02:10:41;;;;;;;7.60;2.40;;;;;;;-1.44;70.88;99663.73;1766021;81;20872;-72
2021/12/03 02:13:11;;;;;;;6.23;2.53;;;;;;;-1.45;71.25;99661.16;1766411;81;21017;-73
2021/12/03 02:15:40;;;;;;;6.60;2.15;;;;;;;-1.42;71.20;99661.16;1766326;81;21018;-72
2021/12/03 02:18:08;;;;;;;7.40;2.80;;;;;;;-1.45;71.32;99667.58;1766401;81;21041;-74
2021/12/03 02:20:42;;;;;;;7.57;3.00;;;;;;;-1.42;71.15;99671.43;1766164;81;21129;-72
2021/12/03 02:23:10;;;;;;;8.07;3.13;;;;;;;-1.47;71.31;99681.73;1766440;81;21045;-73
2021/12/03 02:25:37;;;;;;;5.60;2.70;;;;;;;-1.46;71.33;99687.30;1766120;81;20994;-73
2021/12/03 02:28:04;;;;;;;12.13;2.90;;;;;;;-1.49;71.39;99686.01;1766517;81;21061;-73
2021/12/03 02:30:33;;;;;;;7.03;2.80;;;;;;;-1.51;71.37;99687.72;1766172;81;20998;-73
2021/12/03 02:33:01;;;;;;;6.90;2.57;;;;;;;-1.51;71.45;99686.43;1766293;81;21108;-73
2021/12/03 02:35:28;;;;;;;8.43;2.23;;;;;;;-1.51;71.50;99686.86;1766185;81;20995;-73
2021/12/03 02:37:56;;;;;;;7.10;3.17;;;;;;;-1.54;71.53;99683.02;1766479;81;21018;-74
2021/12/03 02:40:25;;;;;;;11.53;2.60;;;;;;;-1.52;71.61;99688.58;1766098;81;21061;-72
2021/12/03 02:42:55;;;;;;;8.78;2.52;;;;;;;-1.56;71.51;99694.56;1766203;81;21077;-73
2021/12/03 02:45:22;;;;;;;5.63;2.07;;;;;;;-1.58;71.62;99694.58;1764980;80;21097;-73
2021/12/03 02:47:50;;;;;;;4.67;2.23;;;;;;;-1.59;71.73;99688.98;1755123;81;21015;-72
2021/12/03 02:50:18;;;;;;;5.60;2.13;;;;;;;-1.59;71.73;99696.70;1755010;81;21015;-72
2021/12/03 02:52:49;;;;;;;8.50;2.40;;;;;;;-1.62;71.94;99697.13;1755187;81;21007;-72
2021/12/03 02:55:16;;;;;;;10.50;2.93;;;;;;;-1.59;71.85;99706.13;1755240;81;21281;-72
2021/12/03 02:57:43;;;;;;;6.27;2.53;;;;;;;-1.62;71.98;99703.13;1755066;81;21960;-73
2021/12/03 03:00:16;;;;;;;5.53;2.20;;;;;;;-1.62;72.01;99704.84;1755347;81;21015;-73
2021/12/03 03:02:44;;;;;;;10.43;2.33;;;;;;;-1.63;72.08;99713.41;1755103;81;20895;-72
2021/12/03 03:05:16;;;;;;;6.77;2.30;;;;;;;-1.64;72.06;99719.39;1755319;81;21078;-72
2021/12/03 03:07:46;;;;;;;5.60;1.77;;;;;;;-1.67;72.13;99716.82;1755142;81;21279;-73
2021/12/03 03:10:19;;;;;;;5.97;2.52;;;;;;;-1.67;72.19;99718.95;1755429;81;21122;-73
2021/12/03 03:12:48;;;;;;;4.63;1.83;;;;;;;-1.70;72.27;99717.67;1754954;81;21055;-72
2021/12/03 03:15:17;;;;;;;8.70;1.90;;;;;;;-1.69;72.21;99718.52;1755276;81;21595;-72
2021/12/03 03:17:48;;;;;;;5.80;2.23;;;;;;;-1.70;72.44;99724.09;1755065;81;20935;-73
2021/12/03 03:20:17;;;;;;;8.70;1.80;;;;;;;-1.66;72.54;99715.98;1755325;81;21578;-73
2021/12/03 03:22:45;;;;;;;5.50;1.90;;;;;;;-1.65;72.62;99726.25;1754984;81;21504;-72
2021/12/03 03:25:17;;;;;;;6.30;1.73;;;;;;;-1.66;72.55;99719.84;1755213;81;21019;-73
2021/12/03 03:27:44;;;;;;;5.73;2.50;;;;;;;-1.67;72.57;99723.24;1755012;81;21448;-72
2021/12/03 03:30:14;;;;;;;4.17;1.87;;;;;;;-1.64;73.00;99725.81;1755337;81;21290;-73
2021/12/03 03:32:43;;;;;;;10.98;3.67;;;;;;;-1.63;72.69;99716.84;1755285;81;26725;-73
2021/12/03 03:35:11;;;;;;;8.13;2.13;;;;;;;-1.62;72.74;99724.96;1755280;81;21104;-72
2021/12/03 03:37:41;;;;;;;8.37;2.47;;;;;;;-1.64;72.70;99726.66;1755044;81;21019;-72
2021/12/03 03:40:11;;;;;;;5.90;2.20;;;;;;;-1.63;72.71;99732.25;1754894;81;21051;-73
2021/12/03 03:42:38;;;;;;;5.63;2.23;;;;;;;-1.64;72.83;99734.81;1755156;81;21019;-73
2021/12/03 03:45:13;;;;;;;7.40;2.37;;;;;;;-1.61;72.96;99736.09;1755452;81;21086;-72
2021/12/03 03:47:40;;;;;;;8.47;2.20;;;;;;;-1.60;72.99;99733.97;1780805;80;21150;-72
2021/12/03 03:50:09;;;;;;;6.50;1.93;;;;;;;-1.60;72.77;99736.55;1782446;80;20990;-72
2021/12/03 03:52:39;;;;;;;6.57;1.70;;;;;;;-1.64;72.86;99735.66;1782153;79;20982;-73
2021/12/03 03:55:09;;;;;;;7.70;1.90;;;;;;;-1.62;73.06;99733.95;1782354;80;21017;-73
2021/12/03 03:57:38;;;;;;;4.37;1.80;;;;;;;-1.60;73.26;99735.26;1782447;80;21025;-72
2021/12/03 04:00:08;;;;;;;7.23;1.80;;;;;;;-1.58;73.12;99730.95;1782220;80;22053;-72
2021/12/03 04:02:37;;;;;;;5.30;1.63;;;;;;;-1.60;73.08;99734.83;1782390;80;21056;-72
2021/12/03 04:05:06;;;;;;;5.43;1.53;;;;;;;-1.59;73.13;99739.09;1782111;80;21029;-72
2021/12/03 04:07:34;;;;;;;3.93;1.60;;;;;;;-1.61;73.12;99742.12;1782506;80;21061;-72
2021/12/03 04:10:01;;;;;;;6.87;1.80;;;;;;;-1.59;73.21;99740.38;1782250;79;21060;-71
2021/12/03 04:12:28;;;;;;;9.57;2.67;;;;;;;-1.59;73.30;99740.38;1782187;80;21102;-72
2021/12/03 04:14:56;;;;;;;3.57;1.30;;;;;;;-1.52;73.38;99743.84;1782185;80;21313;-72
2021/12/03 04:17:22;;;;;;;6.80;1.87;;;;;;;-1.55;73.26;99746.41;1782308;80;21546;-72
2021/12/03 04:19:49;;;;;;;9.60;2.00;;;;;;;-1.55;73.18;99746.41;1782596;79;21013;-72
2021/12/03 04:22:23;;;;;;;7.20;1.73;;;;;;;-1.58;73.29;99747.66;1782429;79;21072;-74
2021/12/03 04:24:46;;;;;;;6.87;1.57;;;;;;;-1.59;73.26;99747.24;1782577;80;21074;-72
2021/12/03 04:27:13;;;;;;;6.03;1.40;;;;;;;-1.59;73.51;99748.53;1782236;80;20978;-72
2021/12/03 04:29:40;;;;;;;5.30;1.50;;;;;;;-1.56;73.43;99745.95;1782546;80;22864;-72
2021/12/03 04:32:08;;;;;;;8.27;2.00;;;;;;;-1.58;73.38;99752.80;1782286;80;22038;-72
2021/12/03 04:34:36;;;;;;;8.73;1.80;;;;;;;-1.58;73.29;99757.54;1782546;79;21326;-71
2021/12/03 04:37:04;;;;;;;6.23;1.63;;;;;;;-1.63;73.34;99754.09;1782211;79;21122;-72
2021/12/03 04:39:31;;;;;;;7.50;1.83;;;;;;;-1.63;73.44;99759.23;1782413;80;20986;-72
2021/12/03 04:41:58;;;;;;;5.40;1.33;;;;;;;-1.65;73.46;99753.23;1782159;80;21523;-72
2021/12/03 04:44:26;;;;;;;7.37;2.03;;;;;;;-1.65;73.45;99758.36;1782462;79;21491;-73
2021/12/03 04:46:53;;;;;;;8.73;1.43;;;;;;;-1.70;73.55;99763.06;1782202;79;21016;-72
2021/12/03 04:49:20;;;;;;;7.07;1.73;;;;;;;-1.67;73.77;99757.93;1782190;79;21103;-72
2021/12/03 04:51:47;;;;;;;5.93;1.63;;;;;;;-1.67;73.59;99754.08;1782112;79;21506;-73
2021/12/03 04:54:14;;;;;;;7.80;1.70;;;;;;;-1.70;73.65;99753.64;1782251;79;21025;-72
2021/12/03 04:56:41;;;;;;;5.40;1.30;;;;;;;-1.71;73.77;99752.37;1782274;80;21021;-72
2021/12/03 04:59:08;;;;;;;6.80;1.50;;;;;;;-1.69;73.80;99755.38;1782208;80;21076;-72
2021/12/03 05:01:37;;;;;;;6.20;1.77;;;;;;;-1.69;73.94;99757.06;1782435;80;21096;-73
2021/12/03 05:04:06;;;;;;;5.40;2.08;;;;;;;-1.67;73.82;99770.34;1782385;80;21004;-72
2021/12/03 05:09:19;;;;;;;7.83;1.67;;;;;;;-1.67;73.81;99769.06;1782150;79;21006;-73
2021/12/03 05:11:46;;;;;;;5.07;1.63;;;;;;;-1.70;73.85;99765.20;1782478;79;21076;-73
2021/12/03 05:14:15;;;;;;;6.30;1.50;;;;;;;-1.71;73.77;99764.78;1782179;80;21135;-72
2021/12/03 05:16:45;;;;;;;8.87;2.27;;;;;;;-1.72;73.92;99779.75;1782486;79;20993;-73
2021/12/03 05:19:12;;;;;;;10.77;3.27;;;;;;;-1.70;73.88;99775.48;1782088;79;21020;-72
2021/12/03 05:21:39;;;;;;;8.60;2.10;;;;;;;-1.72;73.98;99775.05;1782461;80;21060;-73
2021/12/03 05:24:07;;;;;;;5.43;1.90;;;;;;;-1.69;74.00;99776.33;1782252;80;21028;-73
2021/12/03 05:26:35;;;;;;;5.80;1.77;;;;;;;-1.71;73.95;99784.48;1782434;80;21119;-73
2021/12/03 05:29:04;;;;;;;8.33;2.63;;;;;;;-1.70;73.88;99784.91;1782273;79;21045;-74
2021/12/03 05:31:31;;;;;;;5.40;2.20;;;;;;;-1.72;73.88;99783.60;1782418;79;20926;-73
2021/12/03 05:33:59;;;;;;;5.43;2.00;;;;;;;-1.68;73.78;99793.48;1782117;80;21445;-72
2021/12/03 05:36:26;;;;;;;7.30;1.97;;;;;;;-1.70;73.86;99787.47;1782556;80;21025;-73
2021/12/03 05:38:54;;;;;;;9.40;2.73;;;;;;;-1.70;73.78;99783.19;1782131;80;21116;-73
2021/12/03 05:41:21;;;;;;;6.83;2.33;;;;;;;-1.70;73.76;99795.18;1782544;80;20974;-72
2021/12/03 05:43:48;;;;;;;6.07;1.67;;;;;;;-1.69;73.88;99801.63;1782495;79;20983;-73
2021/12/03 05:46:16;;;;;;;4.90;2.00;;;;;;;-1.65;73.87;99799.48;1782563;79;21025;-73
2021/12/03 05:48:43;;;;;;;4.03;1.60;;;;;;;-1.65;73.89;99805.91;1782320;79;21013;-73
2021/12/03 05:51:10;;;;;;;3.77;1.50;;;;;;;-1.62;73.78;99803.77;1782261;80;21931;-73
2021/12/03 05:53:37;;;;;;;4.70;1.60;;;;;;;-1.60;73.85;99810.63;1782263;80;20981;-73
2021/12/03 05:56:05;;;;;;;5.87;2.03;;;;;;;-1.56;73.77;99812.77;1782371;80;20993;-73
2021/12/03 05:58:34;;;;;;;5.03;1.77;;;;;;;-1.57;73.69;99813.64;1782701;79;21535;-73
2021/12/03 06:01:03;;;;;;;6.22;1.50;;;;;;;-1.55;73.61;99810.66;1782560;80;21021;-73
2021/12/03 06:03:31;;;;;;;8.97;2.43;;;;;;;-1.56;73.67;99816.63;1782595;79;21093;-73
2021/12/03 06:05:58;;;;;;;6.63;2.10;;;;;;;-1.54;73.60;99814.08;1782314;80;21006;-73
2021/12/03 06:08:25;;;;;;;4.60;2.30;;;;;;;-1.57;73.62;99820.06;1782666;79;21571;-74
2021/12/03 06:10:52;;;;;;;2.97;1.93;;;;;;;-1.55;73.58;99818.77;1782184;79;20998;-73
2021/12/03 06:13:19;;;;;;;5.93;2.47;;;;;;;-1.55;73.61;99825.19;1782713;79;22174;-73
2021/12/03 06:15:46;;;;;;;5.43;2.20;;;;;;;-1.57;73.57;99822.20;1782371;80;21456;-73
2021/12/03 06:18:14;;;;;;;7.27;2.30;;;;;;;-1.61;73.55;99830.77;1782532;79;20961;-73
2021/12/03 06:20:41;;;;;;;5.00;1.83;;;;;;;-1.60;73.60;99832.48;1782174;79;21024;-72
2021/12/03 06:23:08;;;;;;;7.37;2.20;;;;;;;-1.58;73.67;99832.06;1782602;79;20982;-73
2021/12/03 06:25:35;;;;;;;5.43;2.13;;;;;;;-1.59;73.61;99831.61;1782428;79;21021;-73
2021/12/03 06:28:04;;;;;;;7.57;2.47;;;;;;;-1.58;73.70;99838.89;1782260;80;22077;-74
2021/12/03 06:30:31;;;;;;;5.83;2.20;;;;;;;-1.58;73.61;99847.48;1782242;80;21009;-73
2021/12/03 06:32:58;;;;;;;8.03;2.80;;;;;;;-1.59;73.61;99851.31;1782425;80;21017;-73
2021/12/03 06:35:25;;;;;;;11.23;3.80;;;;;;;-1.58;73.53;99846.20;1782297;80;21021;-74
2021/12/03 06:37:52;;;;;;;9.60;2.57;;;;;;;-1.61;73.59;99852.61;1782696;79;21022;-73
2021/12/03 06:40:24;;;;;;;9.40;3.03;;;;;;;-1.57;73.63;99845.33;1782249;79;21514;-72
2021/12/03 06:42:52;;;;;;;7.07;2.53;;;;;;;-1.54;73.68;99852.62;1782494;80;21002;-73
2021/12/03 06:45:19;;;;;;;5.07;1.97;;;;;;;-1.51;73.61;99854.77;1782338;79;20998;-73
2021/12/03 06:47:47;;;;;;;6.97;1.90;;;;;;;-1.50;73.68;99848.77;1782337;79;21037;-73
2021/12/03 06:50:18;;;;;;;3.53;1.53;;;;;;;-1.45;73.66;99855.22;1782236;80;20989;-73
2021/12/03 06:52:48;;;;;;;4.33;1.83;;;;;;;-1.42;73.78;99850.08;1782522;79;21101;-73
2021/12/03 06:55:15;;;;;;;5.05;1.75;;;;;;;-1.34;73.72;99858.67;1782493;80;21057;-72
2021/12/03 06:57:44;;;;;;;3.87;1.70;;;;;;;-1.27;73.85;99859.13;1782200;80;21013;-72
2021/12/03 07:00:15;;;;;;;7.42;2.02;;;;;;;-1.20;73.67;99846.70;1782512;80;21561;-73
2021/12/03 07:02:42;;;;;;;7.53;2.40;;;;;;;-1.18;73.65;99862.14;1782340;80;21033;-73
2021/12/03 07:05:10;;;;;;;5.87;1.87;;;;;;;-1.12;73.66;99856.58;1782259;79;21098;-74
2021/12/03 07:07:37;;;;;;;8.00;1.77;;;;;;;-1.06;73.58;99848.44;1782168;80;21516;-72
2021/12/03 07:10:06;;;;;;;5.80;1.90;;;;;;;-1.00;73.56;99860.90;1782198;80;20974;-73
2021/12/03 07:12:33;;;;;;;6.63;2.10;;;;;;;-0.94;73.50;99856.19;1782316;79;21016;-73
2021/12/03 07:15:00;;;;;;;5.30;1.87;;;;;;;-0.87;73.40;99850.61;1782241;80;21464;-73
2021/12/03 07:17:32;;;;;;;7.20;2.70;;;;;;;-0.84;73.35;99852.74;1782254;80;21139;-73
2021/12/03 07:20:01;;;;;;;4.93;1.97;;;;;;;-0.75;73.28;99868.61;1782317;80;21017;-73
2021/12/03 07:22:30;;;;;;;8.07;2.77;;;;;;;-0.74;73.17;99866.05;1782258;79;21562;-73
2021/12/03 07:24:57;;;;;;;7.53;2.50;;;;;;;-0.70;73.03;99869.04;1782256;80;20925;-73
2021/12/03 07:27:25;;;;;;;7.40;2.63;;;;;;;-0.71;72.97;99866.05;1782553;80;20993;-74
2021/12/03 07:29:52;;;;;;;7.83;2.50;;;;;;;-0.70;72.88;99868.19;1782130;79;21951;-72
2021/12/03 07:32:22;;;;;;;8.17;3.00;;;;;;;-0.72;72.86;99877.21;1782390;80;21009;-72
2021/12/03 07:34:50;;;;;;;9.88;2.70;;;;;;;-0.69;72.84;99874.63;1782367;79;23021;-72
2021/12/03 07:37:17;;;;;;;10.57;3.77;;;;;;;-0.66;72.86;99884.08;1782503;80;21069;-72
2021/12/03 07:39:45;;;;;;;6.50;2.70;;;;;;;-0.62;72.83;99892.65;1782351;79;21076;-73
2021/12/03 07:42:13;;;;;;;7.73;2.70;;;;;;;-0.60;72.79;99878.07;1782505;80;21063;-72
2021/12/03 07:44:40;;;;;;;8.37;2.93;;;;;;;-0.58;72.78;99885.34;1782104;79;21488;-72
2021/12/03 07:47:07;;;;;;;5.63;2.80;;;;;;;-0.57;72.73;99884.06;1782659;80;21060;-72
2021/12/03 07:49:35;;;;;;;8.90;2.47;;;;;;;-0.54;72.72;99893.50;1782262;80;20990;-74
2021/12/03 07:52:04;;;;;;;4.77;2.70;;;;;;;-0.54;72.68;99894.80;1782538;80;20970;-74
2021/12/03 07:54:31;;;;;;;7.70;2.60;;;;;;;-0.50;72.71;99879.76;1782702;79;22047;-73
2021/12/03 07:56:58;;;;;;;4.57;2.20;;;;;;;-0.48;72.59;99883.20;1814307;79;20986;-71
2021/12/03 07:59:25;;;;;;;8.97;3.13;;;;;;;-0.44;72.67;99877.20;1787600;77;21009;-73
2021/12/03 08:01:52;;;;;;;8.70;2.47;;;;;;;-0.42;72.51;99879.33;1783181;77;21065;-73
2021/12/03 08:04:19;;;;;;;8.17;2.83;;;;;;;-0.38;72.52;99884.06;1790577;79;21009;-74
2021/12/03 08:06:51;;;;;;;5.23;2.40;;;;;;;-0.33;72.48;99883.64;1813862;78;21075;-72
2021/12/03 08:09:15;;;;;;;9.97;2.80;;;;;;;-0.31;72.46;99882.75;1813556;78;21065;-73
2021/12/03 08:11:43;;;;;;;5.90;2.20;;;;;;;-0.26;72.41;99891.33;1787486;78;21025;-73
2021/12/03 08:14:10;;;;;;;7.47;2.50;;;;;;;-0.23;72.32;99895.19;1782320;79;21021;-73
2021/12/03 08:16:37;;;;;;;7.33;2.33;;;;;;;-0.17;72.29;99893.03;1791234;79;21395;-72
2021/12/03 08:19:05;;;;;;;6.93;2.60;;;;;;;-0.11;72.14;99903.75;1806756;78;21129;-71
2021/12/03 08:21:32;;;;;;;4.07;2.00;;;;;;;-0.07;72.16;99903.76;1813928;78;21002;-71
2021/12/03 08:24:00;;;;;;;6.73;2.40;;;;;;;-0.01;72.05;99905.47;1814048;78;21005;-72
2021/12/03 08:26:29;;;;;;;6.20;2.50;;;;;;;0.06;72.01;99908.91;1792302;79;21001;-75
2021/12/03 08:28:56;;;;;;;7.77;2.57;;;;;;;0.14;71.93;99905.44;1744809;82;21005;-77
2021/12/03 08:31:23;;;;;;;8.17;2.53;;;;;;;0.20;71.78;99905.42;1744607;82;21260;-81
2021/12/03 08:33:51;;;;;;;5.37;2.00;;;;;;;0.29;71.67;99907.55;1736586;81;21016;-74
2021/12/03 08:36:19;;;;;;;7.63;1.80;;;;;;;0.35;71.39;99903.21;1744597;82;21498;-78
2021/12/03 08:38:46;;;;;;;4.77;1.80;;;;;;;0.41;71.35;99902.33;1709573;81;21009;-76
2021/12/03 08:41:19;;;;;;;4.30;1.60;;;;;;;0.47;71.16;99898.88;1715856;83;21028;-77
2021/12/03 08:43:45;;;;;;;7.57;2.13;;;;;;;0.52;71.02;99912.61;1720869;82;21966;-73
2021/12/03 08:46:18;;;;;;;4.87;2.03;;;;;;;0.57;70.78;99903.98;1730934;80;21058;-74
2021/12/03 08:48:45;;;;;;;7.30;2.23;;;;;;;0.69;70.64;99912.53;1713791;82;21130;-77
2021/12/03 08:56:32;;;;;;;3.43;1.80;;;;;;;0.94;70.23;99899.07;1665478;84;21304;-72
2021/12/03 08:58:59;;;;;;;4.77;2.20;;;;;;;0.99;70.02;99912.80;1713071;82;21003;-72
2021/12/03 09:01:26;;;;;;;6.07;2.60;;;;;;;1.07;70.01;99906.73;1665552;83;21602;-72
2021/12/03 09:03:53;;;;;;;7.20;2.00;;;;;;;1.11;69.69;99905.86;1737690;81;20992;-75
2021/12/03 09:06:21;;;;;;;6.47;2.93;;;;;;;1.18;69.55;99910.97;1737933;82;21028;-74
2021/12/03 09:08:48;;;;;;;6.17;2.40;;;;;;;1.22;69.35;99923.86;1723704;82;21162;-72
2021/12/03 09:11:16;;;;;;;4.30;1.90;;;;;;;1.25;69.16;99918.67;1712988;82;20987;-77
2021/12/03 09:13:45;;;;;;;4.80;2.30;;;;;;;1.33;69.18;99927.23;1717062;80;21023;-75
2021/12/03 09:16:16;;;;;;;4.50;2.07;;;;;;;1.45;68.99;99935.31;1730646;82;21015;-73
2021/12/03 09:18:43;;;;;;;5.33;2.00;;;;;;;1.49;68.87;99929.23;1741987;82;21958;-72
2021/12/03 09:21:17;;;;;;;6.63;1.97;;;;;;;1.56;68.66;99924.90;1742761;82;21159;-77
2021/12/03 09:23:54;;;;;;;5.00;1.93;;;;;;;1.61;68.47;99931.30;1741282;82;21011;-73
2021/12/03 09:26:13;;;;;;;4.83;2.20;;;;;;;1.72;68.47;99936.83;1727418;82;21039;-73
2021/12/03 09:28:51;;;;;;;5.33;2.00;;;;;;;1.80;68.32;99939.31;1742799;81;21051;-73
2021/12/03 09:31:18;;;;;;;4.30;2.00;;;;;;;1.91;68.21;99929.77;1718658;82;21026;-72
2021/12/03 09:33:47;;;;;;;8.77;1.93;;;;;;;2.01;67.92;99935.25;1713025;83;21109;-73
2021/12/03 09:36:14;;;;;;;4.63;2.20;;;;;;;2.09;67.84;99926.14;1713206;83;21059;-73
2021/12/03 09:38:41;;;;;;;8.23;2.33;;;;;;;2.18;67.63;99937.67;1713031;83;21280;-72
2021/12/03 09:41:16;;;;;;;4.33;1.80;;;;;;;2.25;67.16;99916.94;1713330;83;21082;-73
2021/12/03 09:43:47;;;;;;;5.87;2.20;;;;;;;2.33;67.14;99931.50;1712798;83;21469;-73
2021/12/03 09:46:19;;;;;;;6.93;2.10;;;;;;;2.41;66.82;99928.39;1720604;82;21438;-72
2021/12/03 09:49:33;;;;;;;6.60;2.43;;;;;;;2.47;66.74;99924.87;1740985;81;21498;-72
2021/12/03 09:51:23;;;;;;;5.37;2.23;;;;;;;2.58;66.48;99914.41;1723528;81;21021;-73
2021/12/03 09:54:20;;;;;;;5.63;2.23;;;;;;;2.68;66.44;99922.45;1730004;82;21007;-72
2021/12/03 09:56:37;;;;;;;5.10;2.10;;;;;;;2.77;66.11;99930.12;1785083;80;20998;-76
2021/12/03 09:59:39;;;;;;;6.90;2.70;;;;;;;2.85;66.06;99928.70;1786064;79;22046;-73
2021/12/03 10:04:54;;;;;;;6.47;2.00;;;;;;;3.22;66.12;99925.63;1754933;81;20930;-72
2021/12/03 10:15:32;;;;;;;5.00;2.47;;;;;;;3.43;64.86;99925.28;1754864;81;21062;-72
2021/12/03 10:18:09;;;;;;;5.23;2.23;;;;;;;3.57;65.01;99927.66;1754846;81;20975;-72
2021/12/03 10:29:23;;;;;;;8.27;2.90;;;;;;;4.08;64.67;99922.48;1786079;80;21077;-72
2021/12/03 10:39:46;;;;;;;4.57;2.13;;;;;;;4.49;63.71;99941.61;1755068;81;21129;-72
2021/12/03 10:45:22;;;;;;;7.97;2.33;;;;;;;4.54;63.02;99920.28;1755326;81;21507;-75
2021/12/03 10:50:28;;;;;;;6.07;2.53;;;;;;;4.61;62.24;99919.29;1777101;79;21332;-75
2021/12/03 11:04:26;;;;;;;5.80;1.70;;;;;;;5.09;62.06;99916.97;1734159;82;21022;-73
2021/12/03 11:28:59;;;;;;;4.87;1.80;;;;;;;6.34;59.36;99922.58;1809321;78;21003;-77
2021/12/03 11:39:24;;;;;;;5.27;1.53;;;;;;;6.86;58.14;99908.08;1734082;81;21444;-73
2021/12/03 11:51:06;;;;;;;3.00;1.45;;;;;;;6.53;57.41;99904.25;1723528;81;21662;-71
2021/12/03 13:17:05;;;;;;;2.93;0.90;;;;;;;5.77;52.58;99920.14;1782417;79;21084;-71
2021/12/03 13:22:26;;;;;;;4.40;1.30;;;;;;;5.89;52.97;99913.77;1782551;79;20989;-72
2021/12/03 13:58:14;;;;;;;2.23;0.60;;;;;;;5.59;51.78;99933.98;1777037;80;21049;-73
2021/12/03 14:05:56;;;;;;;1.10;0.60;;;;;;;5.18;51.28;99950.98;1724166;82;21936;-73
2021/12/03 14:44:40;;;;;;;3.67;0.80;;;;;;;3.93;52.12;99978.48;1777202;79;21053;-73
2021/12/03 14:48:09;;;;;;;1.63;0.40;;;;;;;3.80;52.16;99976.11;1723134;83;21110;-74
2021/12/03 14:55:53;;;;;;;1.57;0.40;;;;;;;3.40;51.93;99981.47;1777302;79;20964;-73
2021/12/03 14:58:21;;;;;;;1.43;0.57;;;;;;;3.28;52.05;99984.66;1731857;80;21938;-74
2021/12/03 15:01:00;;;;;;;3.00;0.57;;;;;;;3.22;52.02;99988.63;1734451;82;21121;-72
2021/12/03 15:06:17;;;;;;;1.03;0.40;;;;;;;3.04;51.91;99988.42;1786396;79;20994;-71
2021/12/03 15:08:50;;;;;;;1.83;0.50;;;;;;;2.95;51.97;99996.31;1788399;79;22100;-75
2021/12/03 15:20:02;;;;;;;3.33;0.90;;;;;;;2.69;52.16;99995.34;1780626;79;21002;-70
2021/12/03 15:22:26;;;;;;;2.93;1.00;;;;;;;2.62;52.33;99994.53;1794943;79;21069;-72
2021/12/03 15:33:03;;;;;;;6.13;2.30;;;;;;;2.36;53.53;99997.41;1808269;79;21617;-72
2021/12/03 16:10:49;;;;;;;11.73;5.90;;;;;;;1.16;56.09;100016.80;1747988;81;21091;-73
2021/12/03 16:13:26;;;;;;;15.13;8.03;;;;;;;1.15;56.24;100025.42;1795088;78;21554;-73
2021/12/03 16:18:47;;;;;;;18.63;7.70;;;;;;;1.13;56.28;100023.71;1782731;79;20998;-73
2021/12/03 16:26:32;;;;;;;9.10;4.30;;;;;;;1.10;56.35;100030.59;1782152;79;21072;-76
2021/12/03 16:46:03;;;;;;;6.90;2.63;;;;;;;1.21;56.27;100016.79;1806007;77;21303;-71
2021/12/03 16:49:14;;;;;;;6.17;2.80;;;;;;;1.21;56.29;100012.92;1786937;79;21132;-70
2021/12/03 16:51:26;;;;;;;5.90;2.73;;;;;;;1.19;56.14;100023.67;1783169;79;20994;-71
2021/12/03 16:53:46;;;;;;;6.27;2.60;;;;;;;1.21;56.24;100015.50;1780351;80;21004;-71
2021/12/03 16:56:15;;;;;;;7.77;3.63;;;;;;;1.21;56.26;100012.48;1781611;80;21009;-74
2021/12/03 16:58:42;;;;;;;8.83;3.40;;;;;;;1.21;56.20;100006.03;1781781;80;21019;-75
2021/12/03 17:01:21;;;;;;;7.03;3.33;;;;;;;1.20;56.25;100007.34;1788671;77;22067;-73
2021/12/03 17:03:51;;;;;;;7.03;2.80;;;;;;;1.22;56.25;100008.17;1783421;77;21005;-71
2021/12/03 17:09:12;;;;;;;5.90;2.57;;;;;;;1.24;56.26;100002.57;1788101;78;21057;-72
2021/12/03 17:30:08;;;;;;;17.33;6.20;;;;;;;1.10;56.41;100009.95;1782441;79;21001;-78
2021/12/03 17:44:19;;;;;;;18.53;6.53;;;;;;;1.09;56.48;100013.41;1772107;80;21462;-71
2021/12/03 17:46:09;;;;;;;10.40;4.20;;;;;;;1.02;56.80;100014.28;1782541;80;21017;-72
2021/12/03 17:51:05;;;;;;;9.80;4.20;;;;;;;0.98;56.76;100002.72;1808836;77;21193;-80
2021/12/03 17:56:17;;;;;;;25.63;10.53;;;;;;;0.94;56.74;100003.14;1795446;79;21566;-80
2021/12/03 17:58:49;;;;;;;75.83;27.30;;;;;;;0.95;56.79;100001.00;1791132;79;21073;-71